sensor_id;sensor_type;location;lat;lon;timestamp;temperature;humidity
40504;DHT22;42292;49.048;8.374;2022-12-17T00:02:23;-4.90;99.90
40504;DHT22;42292;49.048;8.374;2022-12-17T00:05:07;-5.00;99.90
40504;DHT22;42292;49.048;8.374;2022-12-17T00:07:58;-5.10;99.90
40504;DHT22;42292;49.048;8.374;2022-12-17T00:10:43;-5.10;99.90
40504;DHT22;42292;49.048;8.374;2022-12-17T00:13:27;-5.20;99.90
40504;DHT22;42292;49.048;8.374;2022-12-17T00:16:11;-5.20;99.90
40504;DHT22;42292;49.048;8.374;2022-12-17T00:18:55;-5.20;99.90
40504;DHT22;42292;49.048;8.374;2022-12-17T00:21:42;-5.20;99.90
40504;DHT22;42292;49.048;8.374;2022-12-17T00:24:26;-5.20;99.90
40504;DHT22;42292;49.048;8.374;2022-12-17T00:27:10;-5.20;99.90
40504;DHT22;42292;49.048;8.374;2022-12-17T00:29:56;-5.20;99.90
40504;DHT22;42292;49.048;8.374;2022-12-17T00:32:40;-5.20;99.90
40504;DHT22;42292;49.048;8.374;2022-12-17T00:35:25;-5.20;99.90
40504;DHT22;42292;49.048;8.374;2022-12-17T00:38:28;-5.30;99.90
40504;DHT22;42292;49.048;8.374;2022-12-17T00:41:12;-5.30;99.90
40504;DHT22;42292;49.048;8.374;2022-12-17T00:44:18;-5.40;99.90
40504;DHT22;42292;49.048;8.374;2022-12-17T00:47:02;-5.40;99.90
40504;DHT22;42292;49.048;8.374;2022-12-17T00:49:47;-5.50;99.90
40504;DHT22;42292;49.048;8.374;2022-12-17T00:52:33;-5.50;99.90
40504;DHT22;42292;49.048;8.374;2022-12-17T00:55:18;-5.50;99.90
40504;DHT22;42292;49.048;8.374;2022-12-17T00:58:02;-5.50;99.90
40504;DHT22;42292;49.048;8.374;2022-12-17T01:00:47;-5.60;99.90
40504;DHT22;42292;49.048;8.374;2022-12-17T01:03:41;-5.60;99.90
40504;DHT22;42292;49.048;8.374;2022-12-17T01:06:28;-5.60;99.90
40504;DHT22;42292;49.048;8.374;2022-12-17T01:09:12;-5.60;99.90
40504;DHT22;42292;49.048;8.374;2022-12-17T01:11:59;-5.60;99.90
40504;DHT22;42292;49.048;8.374;2022-12-17T01:14:43;-5.60;99.90
40504;DHT22;42292;49.048;8.374;2022-12-17T01:17:27;-5.60;99.90
40504;DHT22;42292;49.048;8.374;2022-12-17T01:20:11;-5.60;99.90
40504;DHT22;42292;49.048;8.374;2022-12-17T01:22:58;-5.70;99.90
40504;DHT22;42292;49.048;8.374;2022-12-17T01:25:42;-5.70;99.90
40504;DHT22;42292;49.048;8.374;2022-12-17T01:28:34;-5.70;99.90
40504;DHT22;42292;49.048;8.374;2022-12-17T01:31:21;-5.70;99.90
40504;DHT22;42292;49.048;8.374;2022-12-17T01:34:05;-5.70;99.90
40504;DHT22;42292;49.048;8.374;2022-12-17T01:36:49;-5.80;99.90
40504;DHT22;42292;49.048;8.374;2022-12-17T01:39:33;-5.70;99.90
40504;DHT22;42292;49.048;8.374;2022-12-17T01:42:19;-5.80;99.90
40504;DHT22;42292;49.048;8.374;2022-12-17T01:45:05;-5.80;99.90
40504;DHT22;42292;49.048;8.374;2022-12-17T01:47:55;-5.80;99.90
40504;DHT22;42292;49.048;8.374;2022-12-17T01:50:44;-5.80;99.90
40504;DHT22;42292;49.048;8.374;2022-12-17T01:53:33;-5.80;99.90
40504;DHT22;42292;49.048;8.374;2022-12-17T01:56:18;-5.80;99.90
40504;DHT22;42292;49.048;8.374;2022-12-17T01:59:05;-5.80;99.90
40504;DHT22;42292;49.048;8.374;2022-12-17T02:01:52;-5.90;99.90
40504;DHT22;42292;49.048;8.374;2022-12-17T02:04:37;-5.90;99.90
40504;DHT22;42292;49.048;8.374;2022-12-17T02:07:40;-5.90;99.90
40504;DHT22;42292;49.048;8.374;2022-12-17T02:11:16;-5.90;99.90
40504;DHT22;42292;49.048;8.374;2022-12-17T02:14:15;-5.90;99.90
40504;DHT22;42292;49.048;8.374;2022-12-17T02:17:05;-6.00;99.90
40504;DHT22;42292;49.048;8.374;2022-12-17T02:20:26;-6.00;99.90
40504;DHT22;42292;49.048;8.374;2022-12-17T02:26:36;-6.00;99.90
40504;DHT22;42292;49.048;8.374;2022-12-17T02:29:26;-6.00;99.90
40504;DHT22;42292;49.048;8.374;2022-12-17T02:32:12;-6.00;99.90
40504;DHT22;42292;49.048;8.374;2022-12-17T02:35:02;-6.10;99.90
40504;DHT22;42292;49.048;8.374;2022-12-17T02:37:48;-6.10;99.90
40504;DHT22;42292;49.048;8.374;2022-12-17T02:40:35;-6.10;99.90
40504;DHT22;42292;49.048;8.374;2022-12-17T02:43:22;-6.10;99.90
40504;DHT22;42292;49.048;8.374;2022-12-17T02:46:07;-6.20;99.90
40504;DHT22;42292;49.048;8.374;2022-12-17T02:48:52;-6.20;99.90
40504;DHT22;42292;49.048;8.374;2022-12-17T02:51:39;-6.20;99.90
40504;DHT22;42292;49.048;8.374;2022-12-17T02:54:30;-6.20;99.90
40504;DHT22;42292;49.048;8.374;2022-12-17T02:57:15;-6.30;99.90
40504;DHT22;42292;49.048;8.374;2022-12-17T02:59:59;-6.30;99.90
40504;DHT22;42292;49.048;8.374;2022-12-17T03:02:43;-6.30;99.90
40504;DHT22;42292;49.048;8.374;2022-12-17T03:05:27;-6.30;99.90
40504;DHT22;42292;49.048;8.374;2022-12-17T03:08:11;-6.30;99.90
40504;DHT22;42292;49.048;8.374;2022-12-17T03:10:56;-6.40;99.90
40504;DHT22;42292;49.048;8.374;2022-12-17T03:13:40;-6.40;99.90
40504;DHT22;42292;49.048;8.374;2022-12-17T03:16:24;-6.40;99.90
40504;DHT22;42292;49.048;8.374;2022-12-17T03:19:09;-6.50;99.90
40504;DHT22;42292;49.048;8.374;2022-12-17T03:21:53;-6.50;99.90
40504;DHT22;42292;49.048;8.374;2022-12-17T03:24:37;-6.50;99.90
40504;DHT22;42292;49.048;8.374;2022-12-17T03:27:25;-6.40;99.90
40504;DHT22;42292;49.048;8.374;2022-12-17T03:30:09;-6.40;99.90
40504;DHT22;42292;49.048;8.374;2022-12-17T03:32:53;-6.50;99.90
40504;DHT22;42292;49.048;8.374;2022-12-17T03:35:37;-6.30;99.90
40504;DHT22;42292;49.048;8.374;2022-12-17T03:38:22;-6.30;99.90
40504;DHT22;42292;49.048;8.374;2022-12-17T03:41:06;-6.40;99.90
40504;DHT22;42292;49.048;8.374;2022-12-17T03:43:50;-6.30;99.90
40504;DHT22;42292;49.048;8.374;2022-12-17T03:46:36;-6.30;99.90
40504;DHT22;42292;49.048;8.374;2022-12-17T03:49:22;-6.20;99.90
40504;DHT22;42292;49.048;8.374;2022-12-17T03:52:07;-6.10;99.90
40504;DHT22;42292;49.048;8.374;2022-12-17T03:54:51;-6.10;99.90
40504;DHT22;42292;49.048;8.374;2022-12-17T03:57:35;-6.10;99.90
40504;DHT22;42292;49.048;8.374;2022-12-17T04:00:19;-6.00;99.90
40504;DHT22;42292;49.048;8.374;2022-12-17T04:03:03;-6.00;99.90
40504;DHT22;42292;49.048;8.374;2022-12-17T04:05:49;-5.90;99.90
40504;DHT22;42292;49.048;8.374;2022-12-17T04:08:34;-5.90;99.90
40504;DHT22;42292;49.048;8.374;2022-12-17T04:11:18;-5.80;99.90
40504;DHT22;42292;49.048;8.374;2022-12-17T04:14:18;-5.60;99.90
40504;DHT22;42292;49.048;8.374;2022-12-17T04:17:05;-5.40;99.90
40504;DHT22;42292;49.048;8.374;2022-12-17T04:19:49;-5.20;99.90
40504;DHT22;42292;49.048;8.374;2022-12-17T04:22:33;-5.00;99.90
40504;DHT22;42292;49.048;8.374;2022-12-17T04:25:19;-4.90;99.90
40504;DHT22;42292;49.048;8.374;2022-12-17T04:28:03;-4.70;99.90
40504;DHT22;42292;49.048;8.374;2022-12-17T04:30:50;-4.40;99.90
40504;DHT22;42292;49.048;8.374;2022-12-17T04:33:34;-4.40;99.90
40504;DHT22;42292;49.048;8.374;2022-12-17T04:36:21;-4.30;99.90
40504;DHT22;42292;49.048;8.374;2022-12-17T04:39:05;-4.30;99.90
40504;DHT22;42292;49.048;8.374;2022-12-17T04:41:52;-4.30;99.90
40504;DHT22;42292;49.048;8.374;2022-12-17T04:44:38;-4.10;99.90
40504;DHT22;42292;49.048;8.374;2022-12-17T04:47:22;-4.00;99.90
40504;DHT22;42292;49.048;8.374;2022-12-17T04:50:06;-3.80;99.90
40504;DHT22;42292;49.048;8.374;2022-12-17T04:53:02;-3.70;99.90
40504;DHT22;42292;49.048;8.374;2022-12-17T04:55:46;-3.60;99.90
40504;DHT22;42292;49.048;8.374;2022-12-17T04:58:31;-3.60;99.90
40504;DHT22;42292;49.048;8.374;2022-12-17T05:01:15;-3.60;99.90
40504;DHT22;42292;49.048;8.374;2022-12-17T05:03:59;-3.50;99.90
40504;DHT22;42292;49.048;8.374;2022-12-17T05:06:43;-3.50;99.90
40504;DHT22;42292;49.048;8.374;2022-12-17T05:09:27;-3.50;99.90
40504;DHT22;42292;49.048;8.374;2022-12-17T05:12:11;-3.40;99.90
40504;DHT22;42292;49.048;8.374;2022-12-17T05:14:58;-3.40;99.90
40504;DHT22;42292;49.048;8.374;2022-12-17T05:17:44;-3.40;99.90
40504;DHT22;42292;49.048;8.374;2022-12-17T05:20:45;-3.30;99.90
40504;DHT22;42292;49.048;8.374;2022-12-17T05:23:34;-3.30;99.90
40504;DHT22;42292;49.048;8.374;2022-12-17T05:26:24;-3.40;99.90
40504;DHT22;42292;49.048;8.374;2022-12-17T05:29:09;-3.40;99.90
40504;DHT22;42292;49.048;8.374;2022-12-17T05:31:53;-3.30;99.90
40504;DHT22;42292;49.048;8.374;2022-12-17T05:34:38;-3.20;99.90
40504;DHT22;42292;49.048;8.374;2022-12-17T05:37:24;-3.20;99.90
40504;DHT22;42292;49.048;8.374;2022-12-17T05:40:11;-3.20;99.90
40504;DHT22;42292;49.048;8.374;2022-12-17T05:42:57;-3.20;99.90
40504;DHT22;42292;49.048;8.374;2022-12-17T05:45:42;-3.10;99.90
40504;DHT22;42292;49.048;8.374;2022-12-17T05:48:27;-3.00;99.90
40504;DHT22;42292;49.048;8.374;2022-12-17T05:51:11;-3.00;99.90
40504;DHT22;42292;49.048;8.374;2022-12-17T05:53:57;-3.10;99.90
40504;DHT22;42292;49.048;8.374;2022-12-17T05:56:42;-3.10;99.90
40504;DHT22;42292;49.048;8.374;2022-12-17T05:59:26;-3.30;99.90
40504;DHT22;42292;49.048;8.374;2022-12-17T06:02:10;-3.20;99.90
40504;DHT22;42292;49.048;8.374;2022-12-17T06:04:55;-3.00;99.90
40504;DHT22;42292;49.048;8.374;2022-12-17T06:07:41;-3.00;99.90
40504;DHT22;42292;49.048;8.374;2022-12-17T06:10:25;-3.40;99.90
40504;DHT22;42292;49.048;8.374;2022-12-17T06:13:10;-3.60;99.90
40504;DHT22;42292;49.048;8.374;2022-12-17T06:15:56;-3.60;99.90
40504;DHT22;42292;49.048;8.374;2022-12-17T06:18:40;-3.80;99.90
40504;DHT22;42292;49.048;8.374;2022-12-17T06:21:24;-3.90;99.90
40504;DHT22;42292;49.048;8.374;2022-12-17T06:24:13;-3.80;99.90
40504;DHT22;42292;49.048;8.374;2022-12-17T06:26:58;-3.90;99.90
40504;DHT22;42292;49.048;8.374;2022-12-17T06:29:42;-3.70;99.90
40504;DHT22;42292;49.048;8.374;2022-12-17T06:32:26;-3.70;99.90
40504;DHT22;42292;49.048;8.374;2022-12-17T06:35:12;-3.80;99.90
40504;DHT22;42292;49.048;8.374;2022-12-17T06:38:02;-3.80;99.90
40504;DHT22;42292;49.048;8.374;2022-12-17T06:40:50;-3.80;99.90
40504;DHT22;42292;49.048;8.374;2022-12-17T06:43:35;-3.80;99.90
40504;DHT22;42292;49.048;8.374;2022-12-17T06:46:19;-3.90;99.90
40504;DHT22;42292;49.048;8.374;2022-12-17T06:49:03;-3.90;99.90
40504;DHT22;42292;49.048;8.374;2022-12-17T06:51:47;-3.90;99.90
40504;DHT22;42292;49.048;8.374;2022-12-17T06:54:31;-4.00;99.90
40504;DHT22;42292;49.048;8.374;2022-12-17T06:57:15;-4.00;99.90
40504;DHT22;42292;49.048;8.374;2022-12-17T06:59:59;-4.10;99.90
40504;DHT22;42292;49.048;8.374;2022-12-17T07:02:43;-4.20;99.90
40504;DHT22;42292;49.048;8.374;2022-12-17T07:05:27;-4.20;99.90
40504;DHT22;42292;49.048;8.374;2022-12-17T07:08:14;-4.20;99.90
40504;DHT22;42292;49.048;8.374;2022-12-17T07:10:59;-4.10;99.90
40504;DHT22;42292;49.048;8.374;2022-12-17T07:13:43;-4.10;99.90
40504;DHT22;42292;49.048;8.374;2022-12-17T07:16:27;-4.20;99.90
40504;DHT22;42292;49.048;8.374;2022-12-17T07:19:11;-4.30;99.90
40504;DHT22;42292;49.048;8.374;2022-12-17T07:21:58;-4.30;99.90
40504;DHT22;42292;49.048;8.374;2022-12-17T07:24:42;-4.30;99.90
40504;DHT22;42292;49.048;8.374;2022-12-17T07:27:26;-4.30;99.90
40504;DHT22;42292;49.048;8.374;2022-12-17T07:30:11;-4.30;99.90
40504;DHT22;42292;49.048;8.374;2022-12-17T07:33:04;-4.30;99.90
40504;DHT22;42292;49.048;8.374;2022-12-17T07:35:48;-4.30;99.90
40504;DHT22;42292;49.048;8.374;2022-12-17T07:38:35;-4.20;99.90
40504;DHT22;42292;49.048;8.374;2022-12-17T07:41:19;-4.10;99.90
40504;DHT22;42292;49.048;8.374;2022-12-17T07:44:03;-4.10;99.90
40504;DHT22;42292;49.048;8.374;2022-12-17T07:46:50;-4.20;99.90
40504;DHT22;42292;49.048;8.374;2022-12-17T07:49:34;-4.30;99.90
40504;DHT22;42292;49.048;8.374;2022-12-17T07:52:20;-4.30;99.90
40504;DHT22;42292;49.048;8.374;2022-12-17T07:55:05;-4.50;99.90
40504;DHT22;42292;49.048;8.374;2022-12-17T07:58:00;-4.40;99.90
40504;DHT22;42292;49.048;8.374;2022-12-17T08:00:45;-4.40;99.90
40504;DHT22;42292;49.048;8.374;2022-12-17T08:03:33;-4.40;99.90
40504;DHT22;42292;49.048;8.374;2022-12-17T08:06:17;-4.30;99.90
40504;DHT22;42292;49.048;8.374;2022-12-17T08:09:01;-4.30;99.90
40504;DHT22;42292;49.048;8.374;2022-12-17T08:11:45;-4.20;99.90
40504;DHT22;42292;49.048;8.374;2022-12-17T08:14:32;-4.30;99.90
40504;DHT22;42292;49.048;8.374;2022-12-17T08:17:18;-4.20;99.90
40504;DHT22;42292;49.048;8.374;2022-12-17T08:20:03;-4.20;99.90
40504;DHT22;42292;49.048;8.374;2022-12-17T08:22:47;-4.00;99.90
40504;DHT22;42292;49.048;8.374;2022-12-17T08:25:45;-4.00;99.90
40504;DHT22;42292;49.048;8.374;2022-12-17T08:28:34;-4.00;99.90
40504;DHT22;42292;49.048;8.374;2022-12-17T08:31:19;-3.90;99.90
40504;DHT22;42292;49.048;8.374;2022-12-17T08:34:03;-4.10;99.90
40504;DHT22;42292;49.048;8.374;2022-12-17T08:36:47;-4.00;99.90
40504;DHT22;42292;49.048;8.374;2022-12-17T08:39:31;-4.10;99.90
40504;DHT22;42292;49.048;8.374;2022-12-17T08:42:19;-4.00;99.90
40504;DHT22;42292;49.048;8.374;2022-12-17T08:45:06;-3.90;99.90
40504;DHT22;42292;49.048;8.374;2022-12-17T08:47:50;-3.80;99.90
40504;DHT22;42292;49.048;8.374;2022-12-17T08:50:34;-3.60;99.90
40504;DHT22;42292;49.048;8.374;2022-12-17T08:53:18;-3.60;99.90
40504;DHT22;42292;49.048;8.374;2022-12-17T08:56:02;-3.60;99.90
40504;DHT22;42292;49.048;8.374;2022-12-17T08:58:47;-3.40;99.90
40504;DHT22;42292;49.048;8.374;2022-12-17T09:01:35;-3.30;99.90
40504;DHT22;42292;49.048;8.374;2022-12-17T09:04:22;-3.20;99.90
40504;DHT22;42292;49.048;8.374;2022-12-17T09:07:06;-3.10;99.90
40504;DHT22;42292;49.048;8.374;2022-12-17T09:09:50;-3.40;99.90
40504;DHT22;42292;49.048;8.374;2022-12-17T09:12:34;-3.30;99.90
40504;DHT22;42292;49.048;8.374;2022-12-17T09:15:21;-2.80;99.90
40504;DHT22;42292;49.048;8.374;2022-12-17T09:18:05;-2.60;99.90
40504;DHT22;42292;49.048;8.374;2022-12-17T09:20:55;-2.50;99.90
40504;DHT22;42292;49.048;8.374;2022-12-17T09:23:39;-2.60;99.90
40504;DHT22;42292;49.048;8.374;2022-12-17T09:26:24;-2.60;99.90
40504;DHT22;42292;49.048;8.374;2022-12-17T09:29:08;-2.60;99.90
40504;DHT22;42292;49.048;8.374;2022-12-17T09:31:53;-2.70;99.90
40504;DHT22;42292;49.048;8.374;2022-12-17T09:34:37;-2.80;99.90
40504;DHT22;42292;49.048;8.374;2022-12-17T09:37:23;-2.90;99.90
40504;DHT22;42292;49.048;8.374;2022-12-17T09:40:15;-2.80;99.90
40504;DHT22;42292;49.048;8.374;2022-12-17T09:43:05;-2.70;99.90
40504;DHT22;42292;49.048;8.374;2022-12-17T09:48:57;-2.60;99.90
40504;DHT22;42292;49.048;8.374;2022-12-17T09:51:43;-2.70;99.90
40504;DHT22;42292;49.048;8.374;2022-12-17T09:57:27;-2.60;99.90
40504;DHT22;42292;49.048;8.374;2022-12-17T10:00:18;-2.70;99.90
40504;DHT22;42292;49.048;8.374;2022-12-17T10:03:17;-2.60;99.90
40504;DHT22;42292;49.048;8.374;2022-12-17T10:09:18;-2.60;99.90
40504;DHT22;42292;49.048;8.374;2022-12-17T10:12:14;-2.80;99.90
40504;DHT22;42292;49.048;8.374;2022-12-17T10:15:01;-2.70;99.90
40504;DHT22;42292;49.048;8.374;2022-12-17T10:17:48;-2.40;99.90
40504;DHT22;42292;49.048;8.374;2022-12-17T10:20:37;-2.10;99.90
40504;DHT22;42292;49.048;8.374;2022-12-17T10:23:30;-2.00;99.90
40504;DHT22;42292;49.048;8.374;2022-12-17T10:26:24;-1.50;99.90
40504;DHT22;42292;49.048;8.374;2022-12-17T10:29:17;-1.70;99.90
40504;DHT22;42292;49.048;8.374;2022-12-17T10:32:28;-1.80;99.90
40504;DHT22;42292;49.048;8.374;2022-12-17T10:35:20;-1.80;99.90
40504;DHT22;42292;49.048;8.374;2022-12-17T10:38:22;-1.70;99.90
40504;DHT22;42292;49.048;8.374;2022-12-17T10:41:27;-1.90;99.90
40504;DHT22;42292;49.048;8.374;2022-12-17T10:44:36;-2.00;99.90
40504;DHT22;42292;49.048;8.374;2022-12-17T10:47:22;-1.90;99.90
40504;DHT22;42292;49.048;8.374;2022-12-17T10:50:21;-1.60;99.90
40504;DHT22;42292;49.048;8.374;2022-12-17T10:53:18;-1.40;99.90
40504;DHT22;42292;49.048;8.374;2022-12-17T10:56:03;-1.60;99.90
40504;DHT22;42292;49.048;8.374;2022-12-17T10:58:54;-1.60;99.90
40504;DHT22;42292;49.048;8.374;2022-12-17T11:01:39;-1.70;99.90
40504;DHT22;42292;49.048;8.374;2022-12-17T11:10:05;-2.00;99.90
40504;DHT22;42292;49.048;8.374;2022-12-17T11:13:00;-2.10;99.90
40504;DHT22;42292;49.048;8.374;2022-12-17T11:15:49;-1.80;99.90
40504;DHT22;42292;49.048;8.374;2022-12-17T11:18:54;-1.70;99.90
40504;DHT22;42292;49.048;8.374;2022-12-17T11:21:50;-1.80;99.90
40504;DHT22;42292;49.048;8.374;2022-12-17T11:24:59;-1.60;99.90
40504;DHT22;42292;49.048;8.374;2022-12-17T11:27:50;-1.40;99.90
40504;DHT22;42292;49.048;8.374;2022-12-17T11:30:45;-1.40;99.90
40504;DHT22;42292;49.048;8.374;2022-12-17T11:33:44;-1.80;99.90
40504;DHT22;42292;49.048;8.374;2022-12-17T11:36:44;-1.70;99.90
40504;DHT22;42292;49.048;8.374;2022-12-17T11:39:33;-1.60;99.90
40504;DHT22;42292;49.048;8.374;2022-12-17T11:42:41;-1.80;99.90
40504;DHT22;42292;49.048;8.374;2022-12-17T11:48:27;-1.50;99.90
40504;DHT22;42292;49.048;8.374;2022-12-17T11:54:27;-1.40;99.90
40504;DHT22;42292;49.048;8.374;2022-12-17T11:57:26;-1.40;99.90
40504;DHT22;42292;49.048;8.374;2022-12-17T12:00:20;-1.30;99.90
40504;DHT22;42292;49.048;8.374;2022-12-17T12:06:16;-1.10;99.90
40504;DHT22;42292;49.048;8.374;2022-12-17T12:09:13;-0.70;99.90
40504;DHT22;42292;49.048;8.374;2022-12-17T12:18:09;-0.60;99.90
40504;DHT22;42292;49.048;8.374;2022-12-17T12:27:22;-1.40;99.90
40504;DHT22;42292;49.048;8.374;2022-12-17T12:30:20;-1.70;99.90
40504;DHT22;42292;49.048;8.374;2022-12-17T12:36:05;-1.80;99.90
40504;DHT22;42292;49.048;8.374;2022-12-17T12:38:54;-1.80;99.90
40504;DHT22;42292;49.048;8.374;2022-12-17T12:53:59;-1.80;99.90
40504;DHT22;42292;49.048;8.374;2022-12-17T12:56:44;-1.90;99.90
40504;DHT22;42292;49.048;8.374;2022-12-17T12:59:29;-1.90;99.90
40504;DHT22;42292;49.048;8.374;2022-12-17T13:02:28;-1.80;99.90
40504;DHT22;42292;49.048;8.374;2022-12-17T13:05:22;-2.00;99.90
40504;DHT22;42292;49.048;8.374;2022-12-17T13:10:34;-1.60;99.90
40504;DHT22;42292;49.048;8.374;2022-12-17T13:13:41;-1.60;99.90
40504;DHT22;42292;49.048;8.374;2022-12-17T13:16:49;-1.70;99.90
40504;DHT22;42292;49.048;8.374;2022-12-17T13:19:37;-1.60;99.90
40504;DHT22;42292;49.048;8.374;2022-12-17T13:24:43;-1.10;99.90
40504;DHT22;42292;49.048;8.374;2022-12-17T13:29:57;-1.20;99.90
40504;DHT22;42292;49.048;8.374;2022-12-17T13:32:37;-1.20;99.90
40504;DHT22;42292;49.048;8.374;2022-12-17T13:35:21;-1.40;99.90
40504;DHT22;42292;49.048;8.374;2022-12-17T13:40:47;-1.50;99.90
40504;DHT22;42292;49.048;8.374;2022-12-17T13:43:30;-1.40;99.90
40504;DHT22;42292;49.048;8.374;2022-12-17T13:45:56;-1.50;99.90
40504;DHT22;42292;49.048;8.374;2022-12-17T13:48:26;-1.50;99.90
40504;DHT22;42292;49.048;8.374;2022-12-17T13:51:03;-1.70;99.90
40504;DHT22;42292;49.048;8.374;2022-12-17T13:53:31;-1.80;99.90
40504;DHT22;42292;49.048;8.374;2022-12-17T13:56:00;-1.80;99.90
40504;DHT22;42292;49.048;8.374;2022-12-17T13:58:28;-1.60;99.90
40504;DHT22;42292;49.048;8.374;2022-12-17T14:01:05;-1.50;99.90
40504;DHT22;42292;49.048;8.374;2022-12-17T14:03:34;-1.20;99.90
40504;DHT22;42292;49.048;8.374;2022-12-17T14:06:00;-1.60;99.90
40504;DHT22;42292;49.048;8.374;2022-12-17T14:08:29;-1.20;99.90
40504;DHT22;42292;49.048;8.374;2022-12-17T14:10:57;-1.20;99.90
40504;DHT22;42292;49.048;8.374;2022-12-17T14:13:43;-1.40;99.90
40504;DHT22;42292;49.048;8.374;2022-12-17T14:16:14;-1.30;99.90
40504;DHT22;42292;49.048;8.374;2022-12-17T14:18:48;-1.00;99.90
40504;DHT22;42292;49.048;8.374;2022-12-17T14:21:15;-1.30;99.90
40504;DHT22;42292;49.048;8.374;2022-12-17T14:23:41;-1.40;99.90
40504;DHT22;42292;49.048;8.374;2022-12-17T14:26:13;-1.30;99.90
40504;DHT22;42292;49.048;8.374;2022-12-17T14:28:53;-1.40;99.90
40504;DHT22;42292;49.048;8.374;2022-12-17T14:31:26;-1.50;99.90
40504;DHT22;42292;49.048;8.374;2022-12-17T14:34:06;-1.40;99.90
40504;DHT22;42292;49.048;8.374;2022-12-17T14:36:37;-1.50;99.90
40504;DHT22;42292;49.048;8.374;2022-12-17T14:39:26;-1.80;99.90
40504;DHT22;42292;49.048;8.374;2022-12-17T14:42:18;-1.90;99.90
40504;DHT22;42292;49.048;8.374;2022-12-17T14:45:02;-2.00;99.90
40504;DHT22;42292;49.048;8.374;2022-12-17T14:47:34;-1.90;99.90
40504;DHT22;42292;49.048;8.374;2022-12-17T14:52:49;-2.30;99.90
40504;DHT22;42292;49.048;8.374;2022-12-17T15:00:35;-2.80;99.90
40504;DHT22;42292;49.048;8.374;2022-12-17T15:03:04;-2.90;99.90
40504;DHT22;42292;49.048;8.374;2022-12-17T15:05:34;-3.00;99.90
40504;DHT22;42292;49.048;8.374;2022-12-17T15:08:04;-3.10;99.90
40504;DHT22;42292;49.048;8.374;2022-12-17T15:10:29;-3.30;99.90
40504;DHT22;42292;49.048;8.374;2022-12-17T15:12:58;-3.40;99.90
40504;DHT22;42292;49.048;8.374;2022-12-17T15:15:26;-3.50;99.90
40504;DHT22;42292;49.048;8.374;2022-12-17T15:17:54;-3.70;99.90
40504;DHT22;42292;49.048;8.374;2022-12-17T15:20:20;-3.80;99.90
40504;DHT22;42292;49.048;8.374;2022-12-17T15:22:46;-3.90;99.90
40504;DHT22;42292;49.048;8.374;2022-12-17T15:25:16;-4.00;99.90
40504;DHT22;42292;49.048;8.374;2022-12-17T15:27:42;-4.10;99.90
40504;DHT22;42292;49.048;8.374;2022-12-17T15:30:16;-4.30;99.90
40504;DHT22;42292;49.048;8.374;2022-12-17T15:32:42;-4.40;99.90
40504;DHT22;42292;49.048;8.374;2022-12-17T15:35:09;-4.50;99.90
40504;DHT22;42292;49.048;8.374;2022-12-17T15:37:35;-4.50;99.90
40504;DHT22;42292;49.048;8.374;2022-12-17T15:40:04;-4.60;99.90
40504;DHT22;42292;49.048;8.374;2022-12-17T15:42:30;-4.50;99.90
40504;DHT22;42292;49.048;8.374;2022-12-17T15:45:15;-4.60;99.90
40504;DHT22;42292;49.048;8.374;2022-12-17T15:47:40;-4.70;99.90
40504;DHT22;42292;49.048;8.374;2022-12-17T15:50:06;-4.70;99.90
40504;DHT22;42292;49.048;8.374;2022-12-17T15:52:32;-4.80;99.90
40504;DHT22;42292;49.048;8.374;2022-12-17T15:54:58;-4.80;99.90
40504;DHT22;42292;49.048;8.374;2022-12-17T15:57:23;-4.90;99.90
40504;DHT22;42292;49.048;8.374;2022-12-17T15:59:52;-5.00;99.90
40504;DHT22;42292;49.048;8.374;2022-12-17T16:02:18;-5.00;99.90
40504;DHT22;42292;49.048;8.374;2022-12-17T16:04:43;-5.10;99.90
40504;DHT22;42292;49.048;8.374;2022-12-17T16:07:09;-5.10;99.90
40504;DHT22;42292;49.048;8.374;2022-12-17T16:09:37;-5.20;99.90
40504;DHT22;42292;49.048;8.374;2022-12-17T16:12:02;-5.20;99.90
40504;DHT22;42292;49.048;8.374;2022-12-17T16:14:28;-5.30;99.90
40504;DHT22;42292;49.048;8.374;2022-12-17T16:16:53;-5.30;99.90
40504;DHT22;42292;49.048;8.374;2022-12-17T16:19:22;-5.30;99.90
40504;DHT22;42292;49.048;8.374;2022-12-17T16:21:52;-5.30;99.90
40504;DHT22;42292;49.048;8.374;2022-12-17T16:24:20;-5.30;99.90
40504;DHT22;42292;49.048;8.374;2022-12-17T16:26:48;-5.30;99.90
40504;DHT22;42292;49.048;8.374;2022-12-17T16:29:16;-5.40;99.90
40504;DHT22;42292;49.048;8.374;2022-12-17T16:31:42;-5.40;99.90
40504;DHT22;42292;49.048;8.374;2022-12-17T16:34:12;-5.50;99.90
40504;DHT22;42292;49.048;8.374;2022-12-17T16:36:38;-5.50;99.90
40504;DHT22;42292;49.048;8.374;2022-12-17T16:39:04;-5.50;99.90
40504;DHT22;42292;49.048;8.374;2022-12-17T16:41:33;-5.50;99.90
40504;DHT22;42292;49.048;8.374;2022-12-17T16:43:59;-5.50;99.90
40504;DHT22;42292;49.048;8.374;2022-12-17T16:46:29;-5.60;99.90
40504;DHT22;42292;49.048;8.374;2022-12-17T16:48:56;-5.60;99.90
40504;DHT22;42292;49.048;8.374;2022-12-17T16:51:26;-5.60;99.90
40504;DHT22;42292;49.048;8.374;2022-12-17T16:53:52;-5.60;99.90
40504;DHT22;42292;49.048;8.374;2022-12-17T16:56:23;-5.70;99.90
40504;DHT22;42292;49.048;8.374;2022-12-17T16:58:50;-5.70;99.90
40504;DHT22;42292;49.048;8.374;2022-12-17T17:01:21;-5.80;99.90
40504;DHT22;42292;49.048;8.374;2022-12-17T17:03:47;-5.80;99.90
40504;DHT22;42292;49.048;8.374;2022-12-17T17:06:13;-5.80;99.90
40504;DHT22;42292;49.048;8.374;2022-12-17T17:08:41;-5.70;99.90
40504;DHT22;42292;49.048;8.374;2022-12-17T17:11:14;-5.70;99.90
40504;DHT22;42292;49.048;8.374;2022-12-17T17:13:41;-5.70;99.90
40504;DHT22;42292;49.048;8.374;2022-12-17T17:16:09;-5.80;99.90
40504;DHT22;42292;49.048;8.374;2022-12-17T17:18:35;-5.90;99.90
40504;DHT22;42292;49.048;8.374;2022-12-17T17:23:47;-6.00;99.90
40504;DHT22;42292;49.048;8.374;2022-12-17T17:26:13;-6.00;99.90
40504;DHT22;42292;49.048;8.374;2022-12-17T17:28:43;-6.00;99.90
40504;DHT22;42292;49.048;8.374;2022-12-17T17:31:11;-6.00;99.90
40504;DHT22;42292;49.048;8.374;2022-12-17T17:33:41;-6.10;99.90
40504;DHT22;42292;49.048;8.374;2022-12-17T17:36:15;-6.10;99.90
40504;DHT22;42292;49.048;8.374;2022-12-17T17:38:44;-6.10;99.90
40504;DHT22;42292;49.048;8.374;2022-12-17T17:41:12;-6.20;99.90
40504;DHT22;42292;49.048;8.374;2022-12-17T17:43:38;-6.20;99.90
40504;DHT22;42292;49.048;8.374;2022-12-17T17:48:33;-6.20;99.90
40504;DHT22;42292;49.048;8.374;2022-12-17T17:51:05;-6.10;99.90
40504;DHT22;42292;49.048;8.374;2022-12-17T17:53:33;-6.10;99.90
40504;DHT22;42292;49.048;8.374;2022-12-17T17:56:08;-6.10;99.90
40504;DHT22;42292;49.048;8.374;2022-12-17T17:58:41;-6.20;99.90
40504;DHT22;42292;49.048;8.374;2022-12-17T18:01:09;-6.10;99.90
40504;DHT22;42292;49.048;8.374;2022-12-17T18:03:35;-6.20;99.90
40504;DHT22;42292;49.048;8.374;2022-12-17T18:06:05;-6.30;99.90
40504;DHT22;42292;49.048;8.374;2022-12-17T18:08:37;-6.30;99.90
40504;DHT22;42292;49.048;8.374;2022-12-17T18:11:11;-6.40;99.90
40504;DHT22;42292;49.048;8.374;2022-12-17T18:13:40;-6.40;99.90
40504;DHT22;42292;49.048;8.374;2022-12-17T18:16:33;-6.40;99.90
40504;DHT22;42292;49.048;8.374;2022-12-17T18:19:05;-6.40;99.90
40504;DHT22;42292;49.048;8.374;2022-12-17T18:21:34;-6.50;99.90
40504;DHT22;42292;49.048;8.374;2022-12-17T18:24:04;-6.50;99.90
40504;DHT22;42292;49.048;8.374;2022-12-17T18:26:33;-6.50;99.90